createdAt,value
2023-07-27T00:01:57.793Z,99434.68
2023-07-27T00:04:31.824Z,99435.78
2023-07-27T00:07:05.350Z,99434.48
2023-07-27T00:09:39.324Z,99428.26
2023-07-27T00:12:14.405Z,99422.66
2023-07-27T00:14:48.521Z,99420.55
2023-07-27T00:17:22.546Z,99415.73
2023-07-27T00:19:56.721Z,99405.78
2023-07-27T00:22:30.278Z,99410.99
2023-07-27T00:25:04.089Z,99402.06
2023-07-27T00:27:39.250Z,99383.95
2023-07-27T00:30:15.209Z,99382.34
2023-07-27T00:32:48.664Z,99387.25
2023-07-27T00:35:22.979Z,99375.42
2023-07-27T00:37:56.717Z,99379.27
2023-07-27T00:40:29.616Z,99382.84
2023-07-27T00:43:03.034Z,99374.54
2023-07-27T00:45:36.276Z,99366.43
2023-07-27T00:48:11.528Z,99368.31
2023-07-27T00:50:45.570Z,99361.30
2023-07-27T00:53:20.828Z,99365.92
2023-07-27T00:55:54.168Z,99378.11
2023-07-27T00:58:28.683Z,99377.60
2023-07-27T01:01:05.507Z,99389.81
2023-07-27T01:03:39.928Z,99401.22
2023-07-27T01:06:14.289Z,99394.80
2023-07-27T01:08:48.669Z,99399.37
2023-07-27T01:11:28.044Z,99398.36
2023-07-27T01:14:14.993Z,99394.05
2023-07-27T01:16:53.155Z,99389.74
2023-07-27T01:20:02.090Z,99383.04
2023-07-27T01:22:52.670Z,99382.02
2023-07-27T01:25:39.840Z,99381.78
2023-07-27T01:28:25.796Z,99381.27
2023-07-27T01:31:02.651Z,99392.87
2023-07-27T01:33:41.798Z,99393.96
2023-07-27T01:36:20.174Z,99396.97
2023-07-27T01:38:55.829Z,99404.56
2023-07-27T01:41:31.320Z,99403.75
2023-07-27T01:44:04.570Z,99399.44
2023-07-27T01:46:40.587Z,99402.95
2023-07-27T01:49:16.476Z,99401.63
2023-07-27T01:51:51.630Z,99402.72
2023-07-27T01:54:25.499Z,99413.83
2023-07-27T01:57:00.541Z,99423.30
2023-07-27T01:59:36.099Z,99423.67
2023-07-27T02:02:11.183Z,99437.76
2023-07-27T02:04:46.039Z,99439.13
2023-07-27T02:07:22.511Z,99444.31
2023-07-27T02:09:56.987Z,99444.59
2023-07-27T02:12:37.117Z,99444.08
2023-07-27T02:15:17.071Z,99440.58
2023-07-27T02:17:56.478Z,99448.95
2023-07-27T02:20:36.482Z,99450.33
2023-07-27T02:23:12.499Z,99464.91
2023-07-27T02:25:45.791Z,99467.09
2023-07-27T02:28:19.133Z,99474.38
2023-07-27T02:30:53.451Z,99481.45
2023-07-27T02:33:27.656Z,99478.53
2023-07-27T02:36:01.578Z,99474.80
2023-07-27T02:38:36.114Z,99479.67
2023-07-27T02:41:11.640Z,99475.63
2023-07-27T02:43:45.140Z,99478.63
2023-07-27T02:46:19.145Z,99474.59
2023-07-27T02:48:54.819Z,99477.59
2023-07-27T02:51:28.588Z,99473.29
2023-07-27T02:54:05.462Z,99482.75
2023-07-27T02:56:38.950Z,99479.01
2023-07-27T02:59:12.459Z,99480.67
2023-07-27T03:01:50.430Z,99475.05
2023-07-27T03:04:27.443Z,99473.71
2023-07-27T03:07:01.761Z,99481.02
2023-07-27T03:09:36.213Z,99486.68
2023-07-27T03:12:11.930Z,99483.98
2023-07-27T03:14:45.354Z,99485.07
2023-07-27T03:17:18.982Z,99481.85
2023-07-27T03:19:52.734Z,99471.36
2023-07-27T03:22:26.739Z,99473.23
2023-07-27T03:25:01.074Z,99476.23
2023-07-27T03:27:34.966Z,99485.42
2023-07-27T03:30:11.783Z,99477.59
2023-07-27T03:32:45.478Z,99487.59
2023-07-27T03:35:19.452Z,99491.65
2023-07-27T03:37:53.768Z,99499.22
2023-07-27T03:40:28.299Z,99496.00
2023-07-27T03:43:02.150Z,99492.78
2023-07-27T03:45:36.309Z,99486.86
2023-07-27T03:48:10.834Z,99495.25
2023-07-27T03:50:44.539Z,99506.04
2023-07-27T03:53:18.664Z,99503.34
2023-07-27T03:55:52.291Z,99502.52
2023-07-27T03:58:26.081Z,99504.42
2023-07-27T04:01:00.503Z,99494.73
2023-07-27T04:03:34.168Z,99498.22
2023-07-27T04:06:08.013Z,99497.13
2023-07-27T04:08:42.272Z,99492.55
2023-07-27T04:11:15.329Z,99498.73
2023-07-27T04:13:49.066Z,99505.74
2023-07-27T04:16:22.606Z,99510.57
2023-07-27T04:18:56.795Z,99510.01
2023-07-27T04:21:30.604Z,99512.14
2023-07-27T04:24:04.645Z,99527.49
2023-07-27T04:26:38.211Z,99538.52
2023-07-27T04:29:11.829Z,99547.95
2023-07-27T04:31:45.924Z,99541.46
2023-07-27T04:34:19.390Z,99542.78
2023-07-27T04:36:52.927Z,99544.95
2023-07-27T04:39:27.139Z,99556.79
2023-07-27T04:42:01.247Z,99560.02
2023-07-27T04:44:34.984Z,99564.32
2023-07-27T04:47:09.059Z,99557.83
2023-07-27T04:49:43.198Z,99573.46
2023-07-27T04:52:17.116Z,99566.97
2023-07-27T04:54:51.094Z,99564.80
2023-07-27T04:57:24.836Z,99566.14
2023-07-27T04:59:58.497Z,99554.78
2023-07-27T05:02:32.116Z,99567.70
2023-07-27T05:05:05.504Z,99566.62
2023-07-27T05:07:39.494Z,99567.93
2023-07-27T05:10:14.413Z,99565.48
2023-07-27T05:12:49.315Z,99565.13
2023-07-27T05:15:22.757Z,99559.41
2023-07-27T05:17:56.265Z,99553.69
2023-07-27T05:20:30.453Z,99561.17
2023-07-27T05:23:04.383Z,99561.69
2023-07-27T05:25:38.629Z,99565.72
2023-07-27T05:28:12.742Z,99571.86
2023-07-27T05:30:47.525Z,99568.83
2023-07-27T05:33:22.292Z,99573.09
2023-07-27T05:35:55.340Z,99584.11
2023-07-27T05:38:29.390Z,99591.36
2023-07-27T05:41:04.516Z,99598.84
2023-07-27T05:43:37.890Z,99601.54
2023-07-27T05:46:12.177Z,99602.88
2023-07-27T05:48:46.108Z,99603.61
2023-07-27T05:51:19.978Z,99615.97
2023-07-27T05:53:54.464Z,99618.34
2023-07-27T05:56:28.014Z,99625.56
2023-07-27T05:59:02.049Z,99631.45
2023-07-27T06:01:35.324Z,99639.50
2023-07-27T06:04:09.788Z,99632.42
2023-07-27T06:06:46.109Z,99637.48
2023-07-27T06:09:19.716Z,99626.29
2023-07-27T06:11:53.007Z,99623.24
2023-07-27T06:14:27.693Z,99613.45
2023-07-27T06:17:01.727Z,99612.78
2023-07-27T06:19:36.477Z,99609.42
2023-07-27T06:22:12.198Z,99611.73
2023-07-27T06:24:46.186Z,99605.15
2023-07-27T06:27:20.390Z,99602.88
2023-07-27T06:29:54.358Z,99597.09
2023-07-27T06:32:28.135Z,99595.13
2023-07-27T06:35:02.585Z,99598.25
2023-07-27T06:37:36.122Z,99594.08
2023-07-27T06:40:12.788Z,99603.22
2023-07-27T06:42:46.985Z,99605.52
2023-07-27T06:45:20.993Z,99616.27
2023-07-27T06:47:55.346Z,99624.30
2023-07-27T06:50:29.316Z,99638.86
2023-07-27T06:53:02.819Z,99646.89
2023-07-27T06:55:37.236Z,99650.62
2023-07-27T06:58:10.946Z,99661.36
2023-07-27T07:00:46.207Z,99656.45
2023-07-27T07:03:20.014Z,99665.40
2023-07-27T07:05:55.808Z,99680.24
2023-07-27T07:08:30.704Z,99676.94
2023-07-27T07:11:03.973Z,99669.81
2023-07-27T07:13:38.269Z,99664.30
2023-07-27T07:16:12.573Z,99656.67
2023-07-27T07:18:46.238Z,99655.82
2023-07-27T07:21:20.701Z,99648.19
2023-07-27T07:23:54.302Z,99656.23
2023-07-27T07:26:27.641Z,99656.63
2023-07-27T07:29:01.489Z,99665.45
2023-07-27T07:31:35.201Z,99666.96
2023-07-27T07:34:08.892Z,99674.70
2023-07-27T07:36:43.501Z,99682.92
2023-07-27T07:39:17.549Z,99690.96
2023-07-27T07:41:51.147Z,99700.92
2023-07-27T07:44:24.926Z,99702.41
2023-07-27T07:46:58.913Z,99698.61
2023-07-27T07:49:32.875Z,99700.92
2023-07-27T07:52:07.864Z,99711.27
2023-07-27T07:54:41.808Z,99702.53
2023-07-27T07:57:15.653Z,99712.45
2023-07-27T07:59:49.797Z,99714.06
2023-07-27T08:02:23.692Z,99716.59
2023-07-27T08:04:57.756Z,99721.10
2023-07-27T08:07:32.060Z,99721.57
2023-07-27T08:10:07.246Z,99725.80
2023-07-27T08:12:41.617Z,99724.69
2023-07-27T08:15:16.174Z,99723.27
2023-07-27T08:17:50.369Z,99722.08
2023-07-27T08:20:24.262Z,99713.06
2023-07-27T08:22:58.370Z,99718.89
2023-07-27T08:25:33.543Z,99728.64
2023-07-27T08:28:08.237Z,99730.62
2023-07-27T08:30:43.773Z,99733.34
2023-07-27T08:33:17.691Z,99749.32
2023-07-27T08:35:51.627Z,99758.33
2023-07-27T08:38:25.786Z,99747.58
2023-07-27T08:41:00.683Z,99768.34
2023-07-27T08:43:33.950Z,99776.33
2023-07-27T08:46:07.593Z,99769.24
2023-07-27T08:48:43.891Z,99767.80
2023-07-27T08:51:17.804Z,99759.23
2023-07-27T08:53:51.772Z,99756.41
2023-07-27T08:56:26.175Z,99750.19
2023-07-27T08:59:03.649Z,99757.87
2023-07-27T09:01:37.776Z,99764.38
2023-07-27T09:04:12.805Z,99763.28
2023-07-27T09:06:50.392Z,99774.91
2023-07-27T09:09:26.556Z,99780.32
2023-07-27T09:11:59.722Z,99777.92
2023-07-27T09:14:38.117Z,99786.28
2023-07-27T09:17:14.909Z,99792.52
2023-07-27T09:19:50.048Z,99792.28
2023-07-27T09:22:23.596Z,99790.67
2023-07-27T09:25:00.867Z,99792.86
2023-07-27T09:27:45.577Z,99787.75
2023-07-27T09:30:20.852Z,99793.44
2023-07-27T09:32:55.589Z,99787.23
2023-07-27T09:35:30.169Z,99781.59
2023-07-27T09:38:04.586Z,99782.23
2023-07-27T09:40:40.441Z,99780.41
2023-07-27T09:43:15.259Z,99790.78
2023-07-27T09:45:49.532Z,99801.14
2023-07-27T09:48:23.783Z,99812.87
2023-07-27T09:50:59.734Z,99819.63
2023-07-27T09:53:37.223Z,99806.31
2023-07-27T09:56:11.932Z,99799.23
2023-07-27T09:58:48.017Z,99808.63
2023-07-27T10:01:22.306Z,99818.56
2023-07-27T10:03:59.872Z,99819.09
2023-07-27T10:06:35.361Z,99811.73
2023-07-27T10:09:21.626Z,99810.57
2023-07-27T10:12:01.691Z,99808.89
2023-07-27T10:14:36.614Z,99814.89
2023-07-27T10:17:13.383Z,99810.50
2023-07-27T10:19:48.442Z,99816.95
2023-07-27T10:22:24.010Z,99817.98
2023-07-27T10:24:59.549Z,99819.31
2023-07-27T10:27:59.625Z,99819.05
2023-07-27T10:30:35.933Z,99830.14
2023-07-27T10:33:18.199Z,99834.23
2023-07-27T10:36:08.850Z,99826.65
2023-07-27T10:38:42.100Z,99845.59
2023-07-27T10:41:18.361Z,99833.13
2023-07-27T10:44:20.814Z,99825.55
2023-07-27T10:46:59.439Z,99833.41
2023-07-27T10:49:33.446Z,99839.13
2023-07-27T10:52:07.733Z,99843.78
2023-07-27T10:54:45.672Z,99847.88
2023-07-27T10:57:20.972Z,99856.00
2023-07-27T10:59:56.325Z,99861.17
2023-07-27T11:02:31.731Z,99864.19
2023-07-27T11:05:09.504Z,99869.08
2023-07-27T11:07:45.865Z,99863.36
2023-07-27T11:10:28.468Z,99868.78
2023-07-27T11:13:02.417Z,99881.22
2023-07-27T11:15:36.701Z,99885.31
2023-07-27T11:18:11.430Z,99892.40
2023-07-27T11:20:46.140Z,99898.08
2023-07-27T11:23:20.212Z,99894.59
2023-07-27T11:25:54.692Z,99892.97
2023-07-27T11:28:28.545Z,99892.45
2023-07-27T11:31:02.788Z,99894.64
2023-07-27T11:33:39.073Z,99911.45
2023-07-27T11:36:12.956Z,99921.75
2023-07-27T11:38:47.127Z,99938.25
2023-07-27T11:43:58.379Z,99953.13
2023-07-27T11:46:47.874Z,99937.16
2023-07-27T11:49:23.597Z,99933.41
2023-07-27T11:51:57.809Z,99919.94
2023-07-27T11:54:32.058Z,99928.39
2023-07-27T11:57:06.003Z,99929.01
2023-07-27T11:59:41.536Z,99924.95
2023-07-27T12:02:15.233Z,99916.09
2023-07-27T12:04:50.270Z,99913.14
2023-07-27T12:07:28.277Z,99900.48
2023-07-27T12:12:46.509Z,99886.19
2023-07-27T12:15:32.579Z,99873.77
2023-07-27T12:18:07.942Z,99855.97
2023-07-27T12:33:48.335Z,99882.87
2023-07-27T12:36:22.330Z,99875.27
2023-07-27T12:38:56.838Z,99886.39
2023-07-27T12:41:29.885Z,99883.64
2023-07-27T12:44:03.448Z,99900.88
2023-07-27T12:46:37.682Z,99911.64
2023-07-27T12:49:11.550Z,99912.69
2023-07-27T12:51:45.858Z,99917.80
2023-07-27T12:54:19.633Z,99930.48
2023-07-27T12:56:54.276Z,99921.50
2023-07-27T12:59:28.472Z,99922.84
2023-07-27T13:02:02.549Z,99930.39
2023-07-27T13:04:36.436Z,99939.03
2023-07-27T13:07:13.918Z,99928.20
2023-07-27T13:09:47.616Z,99927.63
2023-07-27T13:12:20.910Z,99920.03
2023-07-27T13:14:54.925Z,99934.66
2023-07-27T13:17:28.967Z,99927.63
2023-07-27T13:20:03.544Z,99928.20
2023-07-27T13:22:37.131Z,99936.89
2023-07-27T13:25:12.247Z,99935.80
2023-07-27T13:27:48.546Z,99941.78
2023-07-27T13:30:23.135Z,99951.78
2023-07-27T13:32:57.027Z,99949.38
2023-07-27T13:35:30.828Z,99957.77
2023-07-27T13:38:04.267Z,99977.00
2023-07-27T13:40:37.969Z,99993.28
2023-07-27T13:43:11.557Z,99996.55
2023-07-27T13:45:45.524Z,100003.31
2023-07-27T13:48:20.452Z,100004.70
2023-07-27T13:50:54.534Z,100004.70
2023-07-27T13:53:28.263Z,99972.81
2023-07-27T13:56:02.213Z,99957.75
2023-07-27T13:58:36.572Z,99921.59
2023-07-27T14:01:10.267Z,99912.44
2023-07-27T14:03:44.746Z,99915.74
2023-07-27T14:06:18.275Z,99917.95
2023-07-27T14:08:52.941Z,99923.39
2023-07-27T14:11:26.917Z,99958.80
2023-07-27T14:14:01.989Z,99976.10
2023-07-27T14:16:35.874Z,99977.72
2023-07-27T14:19:10.001Z,99970.95
2023-07-27T14:21:44.088Z,99967.44
2023-07-27T14:24:18.102Z,99983.09
2023-07-27T14:26:51.126Z,99994.70
2023-07-27T14:29:26.248Z,100000.07
2023-07-27T14:32:00.029Z,99999.48
2023-07-27T14:34:34.076Z,99990.28
2023-07-27T14:37:08.767Z,100000.77
2023-07-27T14:42:20.714Z,99996.06
2023-07-27T14:44:54.283Z,100007.59
2023-07-27T14:47:28.426Z,100000.78
2023-07-27T14:50:02.221Z,100000.97
2023-07-27T14:52:36.308Z,99997.65
2023-07-27T14:55:14.650Z,100000.56
2023-07-27T14:57:48.546Z,99990.20
2023-07-27T15:00:23.685Z,99990.40
2023-07-27T15:03:04.850Z,99996.59
2023-07-27T15:05:40.235Z,100005.75
2023-07-27T15:08:14.287Z,100003.51
2023-07-27T15:11:37.790Z,99997.98
2023-07-27T15:13:41.985Z,99991.34
2023-07-27T15:16:15.972Z,99989.30
2023-07-27T15:18:50.225Z,99999.22
2023-07-27T15:21:23.999Z,100003.41
2023-07-27T15:23:57.849Z,100005.20
2023-07-27T15:26:31.199Z,100015.32
2023-07-27T15:29:05.146Z,100016.34
2023-07-27T15:31:39.249Z,100017.61
2023-07-27T15:34:13.522Z,100015.85
2023-07-27T15:36:47.124Z,100014.36
2023-07-27T15:39:21.125Z,100008.58
2023-07-27T15:41:54.001Z,100015.23
2023-07-27T15:44:27.688Z,100011.95
2023-07-27T15:47:01.491Z,100015.18
2023-07-27T15:49:35.034Z,100021.31
2023-07-27T15:52:10.502Z,100022.59
2023-07-27T15:54:44.139Z,100028.73
2023-07-27T15:57:17.248Z,100036.78
2023-07-27T15:59:51.009Z,100040.02
2023-07-27T16:02:25.922Z,100047.05
2023-07-27T16:04:59.771Z,100050.00
2023-07-27T16:07:33.687Z,100053.50
2023-07-27T16:10:09.025Z,100057.04
2023-07-27T16:12:42.238Z,100057.32
2023-07-27T16:15:16.695Z,100063.85
2023-07-27T16:17:50.809Z,100063.85
2023-07-27T16:20:24.991Z,100061.14
2023-07-27T16:22:58.908Z,100064.16
2023-07-27T16:25:32.610Z,100075.81
2023-07-27T16:28:07.585Z,100081.55
2023-07-27T16:30:44.850Z,100080.22
2023-07-27T16:33:19.055Z,100085.45
2023-07-27T16:35:53.592Z,100082.81
2023-07-27T16:38:27.657Z,100090.73
2023-07-27T16:41:01.688Z,100095.41
2023-07-27T16:43:35.608Z,100095.48
2023-07-27T16:46:15.435Z,100097.73
2023-07-27T16:48:50.075Z,100095.91
2023-07-27T16:51:24.197Z,100095.98
2023-07-27T16:53:58.382Z,100109.10
2023-07-27T16:56:32.228Z,100098.91
2023-07-27T16:59:07.005Z,100104.98
2023-07-27T17:01:41.378Z,100106.14
2023-07-27T17:04:15.235Z,100115.44
2023-07-27T17:06:49.522Z,100119.30
2023-07-27T17:09:23.270Z,100117.23
2023-07-27T17:11:56.159Z,100128.16
2023-07-27T17:14:30.740Z,100117.12
2023-07-27T17:17:04.520Z,100118.05
2023-07-27T17:19:38.638Z,100129.52
2023-07-27T17:22:12.384Z,100129.31
2023-07-27T17:24:46.360Z,100134.55
2023-07-27T17:27:19.486Z,100140.33
2023-07-27T17:29:53.321Z,100153.95
2023-07-27T17:32:26.665Z,100152.67
2023-07-27T17:35:01.114Z,100155.45
2023-07-27T17:37:34.933Z,100150.10
2023-07-27T17:40:12.099Z,100160.13
2023-07-27T17:42:45.959Z,100152.90
2023-07-27T17:45:20.058Z,100158.89
2023-07-27T17:47:53.209Z,100154.07
2023-07-27T17:50:27.340Z,100166.27
2023-07-27T17:53:01.421Z,100166.84
2023-07-27T17:55:35.490Z,100172.52
2023-07-27T17:58:10.404Z,100169.30
2023-07-27T18:00:44.200Z,100174.98
2023-07-27T18:03:19.449Z,100176.37
2023-07-27T18:05:53.545Z,100175.32
2023-07-27T18:08:27.133Z,100177.47
2023-07-27T18:11:02.578Z,100179.92
2023-07-27T18:13:35.961Z,100181.27
2023-07-27T18:16:13.309Z,100180.20
2023-07-27T18:18:47.165Z,100186.69
2023-07-27T18:21:21.268Z,100189.94
2023-07-27T18:23:55.479Z,100191.27
2023-07-27T18:26:29.043Z,100198.28
2023-07-27T18:29:04.809Z,100205.55
2023-07-27T18:31:39.067Z,100200.43
2023-07-27T18:34:12.970Z,100207.98
2023-07-27T18:36:46.903Z,100204.73
2023-07-27T18:39:20.995Z,100207.66
2023-07-27T18:41:53.840Z,100218.45
2023-07-27T18:44:26.779Z,100218.44
2023-07-27T18:47:00.788Z,100219.49
2023-07-27T18:49:35.164Z,100219.48
2023-07-27T18:52:10.736Z,100227.55
2023-07-27T18:54:44.206Z,100225.11
2023-07-27T18:57:18.032Z,100229.41
2023-07-27T18:59:51.970Z,100237.70
2023-07-27T19:02:25.170Z,100237.67
2023-07-27T19:04:58.609Z,100226.86
2023-07-27T19:07:33.154Z,100232.50
2023-07-27T19:10:08.905Z,100241.63
2023-07-27T19:12:41.991Z,100239.98
2023-07-27T19:15:16.813Z,100239.12
2023-07-27T19:17:50.200Z,100240.47
2023-07-27T19:20:24.597Z,100243.66
2023-07-27T19:22:58.137Z,100245.48
2023-07-27T19:25:32.372Z,100247.59
2023-07-27T19:28:08.775Z,100256.19
2023-07-27T19:30:45.938Z,100256.42
2023-07-27T19:33:19.988Z,100261.77
2023-07-27T19:35:54.621Z,100260.91
2023-07-27T19:38:29.303Z,100261.34
2023-07-27T19:41:02.952Z,100257.80
2023-07-27T19:43:36.998Z,100262.83
2023-07-27T19:46:11.685Z,100267.09
2023-07-27T19:48:45.776Z,100271.88
2023-07-27T19:51:19.711Z,100275.34
2023-07-27T19:53:54.311Z,100273.39
2023-07-27T19:56:27.875Z,100278.96
2023-07-27T19:59:01.826Z,100278.11
2023-07-27T20:01:36.066Z,100284.50
2023-07-27T20:04:10.026Z,100286.36
2023-07-27T20:06:44.258Z,100290.38
2023-07-27T20:09:18.478Z,100298.13
2023-07-27T20:11:51.889Z,100290.00
2023-07-27T20:14:35.218Z,100294.25
2023-07-27T20:17:09.866Z,100300.13
2023-07-27T20:19:43.859Z,100304.39
2023-07-27T20:22:17.871Z,100305.16
2023-07-27T20:24:51.750Z,100307.28
2023-07-27T20:27:25.230Z,100315.58
2023-07-27T20:29:59.232Z,100309.90
2023-07-27T20:32:33.181Z,100316.58
2023-07-27T20:35:08.026Z,100319.76
2023-07-27T20:37:42.005Z,100321.05
2023-07-27T20:40:16.790Z,100320.48
2023-07-27T20:42:49.903Z,100323.67
2023-07-27T20:45:23.964Z,100326.85
2023-07-27T20:47:57.845Z,100328.15
2023-07-27T20:50:32.202Z,100321.41
2023-07-27T20:53:07.884Z,100319.44
2023-07-27T20:55:41.502Z,100324.52
2023-07-27T20:58:15.750Z,100333.38
2023-07-27T21:00:49.536Z,100326.86
2023-07-27T21:03:22.771Z,100333.30
2023-07-27T21:05:56.103Z,100332.16
2023-07-27T21:08:29.851Z,100334.55
2023-07-27T21:11:04.019Z,100327.77
2023-07-27T21:13:39.266Z,100339.01
2023-07-27T21:16:13.269Z,100340.33
2023-07-27T21:18:46.833Z,100343.50
2023-07-27T21:21:23.208Z,100349.59
2023-07-27T21:23:56.427Z,100343.91
2023-07-27T21:26:30.135Z,100352.45
2023-07-27T21:29:03.718Z,100356.91
2023-07-27T21:31:38.013Z,100356.34
2023-07-27T21:34:12.410Z,100365.72
2023-07-27T21:36:46.541Z,100356.52
2023-07-27T21:39:19.980Z,100359.69
2023-07-27T21:42:00.156Z,100358.28
2023-07-27T21:44:34.296Z,100358.77
2023-07-27T21:47:09.150Z,100361.13
2023-07-27T21:49:43.585Z,100357.05
2023-07-27T21:52:17.006Z,100351.36
2023-07-27T21:54:50.499Z,100362.33
2023-07-27T21:57:23.656Z,100354.75
2023-07-27T21:59:57.476Z,100366.80
2023-07-27T22:02:31.534Z,100369.97
2023-07-27T22:05:06.250Z,100364.22
2023-07-27T22:07:39.717Z,100377.89
2023-07-27T22:10:13.768Z,100375.69
2023-07-27T22:12:47.004Z,100380.70
2023-07-27T22:15:21.070Z,100375.81
2023-07-27T22:17:54.925Z,100385.17
2023-07-27T22:20:28.751Z,100381.91
2023-07-27T22:23:01.717Z,100386.13
2023-07-27T22:25:35.180Z,100389.28
2023-07-27T22:28:09.829Z,100384.62
2023-07-27T22:30:49.230Z,100393.39
2023-07-27T22:33:23.015Z,100390.36
2023-07-27T22:35:56.570Z,100390.03
2023-07-27T22:38:30.163Z,100390.50
2023-07-27T22:41:04.949Z,100390.97
2023-07-27T22:43:38.300Z,100380.14
2023-07-27T22:46:12.112Z,100379.78
2023-07-27T22:48:46.144Z,100376.77
2023-07-27T22:51:21.148Z,100378.51
2023-07-27T22:53:54.952Z,100379.81
2023-07-27T22:56:28.344Z,100381.33
2023-07-27T22:59:02.245Z,100379.34
2023-07-27T23:01:36.368Z,100391.58
2023-07-27T23:04:10.224Z,100397.41
2023-07-27T23:06:44.388Z,100405.12
2023-07-27T23:09:18.183Z,100407.44
2023-07-27T23:11:52.326Z,100406.27
2023-07-27T23:14:26.619Z,100417.45
2023-07-27T23:17:00.488Z,100414.44
2023-07-27T23:19:34.221Z,100404.98
2023-07-27T23:22:08.390Z,100404.18
2023-07-27T23:24:43.532Z,100417.18
2023-07-27T23:27:16.630Z,100410.41
2023-07-27T23:29:50.508Z,100421.59
2023-07-27T23:32:24.530Z,100410.28
2023-07-27T23:34:58.199Z,100410.75
2023-07-27T23:37:31.961Z,100413.08
2023-07-27T23:40:06.316Z,100418.07
2023-07-27T23:42:39.611Z,100416.90
2023-07-27T23:45:13.466Z,100419.23
2023-07-27T23:47:46.869Z,100420.50
2023-07-27T23:50:20.972Z,100416.64
2023-07-27T23:52:55.122Z,100419.78
2023-07-27T23:55:28.754Z,100417.56
2023-07-27T23:58:01.986Z,100429.56
